sensor_id;sensor_type;location;lat;lon;timestamp;temperature;humidity
54264;DHT22;40178;53.042;6.406;2022-10-31T00:01:58;10.90;99.90
54264;DHT22;40178;53.042;6.406;2022-10-31T00:04:23;10.80;99.90
54264;DHT22;40178;53.042;6.406;2022-10-31T00:06:49;10.80;99.90
54264;DHT22;40178;53.042;6.406;2022-10-31T00:09:14;10.80;99.90
54264;DHT22;40178;53.042;6.406;2022-10-31T00:11:40;10.80;99.90
54264;DHT22;40178;53.042;6.406;2022-10-31T00:14:06;10.80;99.90
54264;DHT22;40178;53.042;6.406;2022-10-31T00:16:31;10.80;99.90
54264;DHT22;40178;53.042;6.406;2022-10-31T00:18:59;10.90;99.90
54264;DHT22;40178;53.042;6.406;2022-10-31T00:21:25;10.80;99.90
54264;DHT22;40178;53.042;6.406;2022-10-31T00:23:52;10.80;99.90
54264;DHT22;40178;53.042;6.406;2022-10-31T00:26:18;10.70;99.90
54264;DHT22;40178;53.042;6.406;2022-10-31T00:28:43;10.80;99.90
54264;DHT22;40178;53.042;6.406;2022-10-31T00:31:10;10.70;99.90
54264;DHT22;40178;53.042;6.406;2022-10-31T00:33:37;10.70;99.90
54264;DHT22;40178;53.042;6.406;2022-10-31T00:36:04;10.70;99.90
54264;DHT22;40178;53.042;6.406;2022-10-31T00:38:30;10.80;99.90
54264;DHT22;40178;53.042;6.406;2022-10-31T00:40:56;10.70;99.90
54264;DHT22;40178;53.042;6.406;2022-10-31T00:43:22;10.70;99.90
54264;DHT22;40178;53.042;6.406;2022-10-31T00:45:47;10.70;99.90
54264;DHT22;40178;53.042;6.406;2022-10-31T00:48:13;10.80;99.90
54264;DHT22;40178;53.042;6.406;2022-10-31T00:50:39;10.70;99.90
54264;DHT22;40178;53.042;6.406;2022-10-31T00:53:05;10.70;99.90
54264;DHT22;40178;53.042;6.406;2022-10-31T00:55:31;10.60;99.90
54264;DHT22;40178;53.042;6.406;2022-10-31T00:57:57;10.50;99.90
54264;DHT22;40178;53.042;6.406;2022-10-31T01:00:22;10.50;99.90
54264;DHT22;40178;53.042;6.406;2022-10-31T01:02:48;10.50;99.90
54264;DHT22;40178;53.042;6.406;2022-10-31T01:05:14;10.60;99.90
54264;DHT22;40178;53.042;6.406;2022-10-31T01:07:40;10.50;99.90
54264;DHT22;40178;53.042;6.406;2022-10-31T01:10:07;10.50;99.90
54264;DHT22;40178;53.042;6.406;2022-10-31T01:12:37;10.50;99.90
54264;DHT22;40178;53.042;6.406;2022-10-31T01:15:03;10.60;99.90
54264;DHT22;40178;53.042;6.406;2022-10-31T01:17:28;10.50;99.90
54264;DHT22;40178;53.042;6.406;2022-10-31T01:19:54;10.50;99.90
54264;DHT22;40178;53.042;6.406;2022-10-31T01:22:20;10.50;99.90
54264;DHT22;40178;53.042;6.406;2022-10-31T01:24:45;10.60;99.90
54264;DHT22;40178;53.042;6.406;2022-10-31T01:27:11;10.60;99.90
54264;DHT22;40178;53.042;6.406;2022-10-31T01:29:37;10.60;99.90
54264;DHT22;40178;53.042;6.406;2022-10-31T01:32:02;10.50;99.90
54264;DHT22;40178;53.042;6.406;2022-10-31T01:34:28;10.50;99.90
54264;DHT22;40178;53.042;6.406;2022-10-31T01:36:53;10.60;99.90
54264;DHT22;40178;53.042;6.406;2022-10-31T01:39:19;10.50;99.90
54264;DHT22;40178;53.042;6.406;2022-10-31T01:41:52;10.60;99.90
54264;DHT22;40178;53.042;6.406;2022-10-31T01:46:57;10.60;99.90
54264;DHT22;40178;53.042;6.406;2022-10-31T01:49:40;10.50;99.90
54264;DHT22;40178;53.042;6.406;2022-10-31T01:52:11;10.50;99.90
54264;DHT22;40178;53.042;6.406;2022-10-31T01:54:41;10.40;99.90
54264;DHT22;40178;53.042;6.406;2022-10-31T01:57:10;10.40;99.90
54264;DHT22;40178;53.042;6.406;2022-10-31T01:59:42;10.40;99.90
54264;DHT22;40178;53.042;6.406;2022-10-31T02:02:09;10.40;99.90
54264;DHT22;40178;53.042;6.406;2022-10-31T02:04:35;10.30;99.90
54264;DHT22;40178;53.042;6.406;2022-10-31T02:07:09;10.30;99.90
54264;DHT22;40178;53.042;6.406;2022-10-31T02:09:36;10.30;99.90
54264;DHT22;40178;53.042;6.406;2022-10-31T02:12:03;10.30;99.90
54264;DHT22;40178;53.042;6.406;2022-10-31T02:14:30;10.30;99.90
54264;DHT22;40178;53.042;6.406;2022-10-31T02:16:57;10.30;99.90
54264;DHT22;40178;53.042;6.406;2022-10-31T02:19:56;10.20;99.90
54264;DHT22;40178;53.042;6.406;2022-10-31T02:25:42;10.20;99.90
54264;DHT22;40178;53.042;6.406;2022-10-31T02:33:48;10.00;99.90
54264;DHT22;40178;53.042;6.406;2022-10-31T02:36:27;9.90;99.90
54264;DHT22;40178;53.042;6.406;2022-10-31T02:39:00;9.80;99.90
54264;DHT22;40178;53.042;6.406;2022-10-31T02:41:32;9.90;99.90
54264;DHT22;40178;53.042;6.406;2022-10-31T02:44:21;9.80;99.90
54264;DHT22;40178;53.042;6.406;2022-10-31T02:49:45;9.80;99.90
54264;DHT22;40178;53.042;6.406;2022-10-31T02:52:18;9.90;99.90
54264;DHT22;40178;53.042;6.406;2022-10-31T02:54:45;9.90;99.90
54264;DHT22;40178;53.042;6.406;2022-10-31T02:57:12;9.90;99.90
54264;DHT22;40178;53.042;6.406;2022-10-31T02:59:44;9.90;99.90
54264;DHT22;40178;53.042;6.406;2022-10-31T03:10:31;9.60;99.90
54264;DHT22;40178;53.042;6.406;2022-10-31T03:15:47;9.60;99.90
54264;DHT22;40178;53.042;6.406;2022-10-31T03:18:30;9.60;99.90
54264;DHT22;40178;53.042;6.406;2022-10-31T03:21:21;9.70;99.90
54264;DHT22;40178;53.042;6.406;2022-10-31T03:23:49;9.60;99.90
54264;DHT22;40178;53.042;6.406;2022-10-31T03:26:16;9.60;99.90
54264;DHT22;40178;53.042;6.406;2022-10-31T03:29:02;9.50;99.90
54264;DHT22;40178;53.042;6.406;2022-10-31T03:31:33;9.50;99.90
54264;DHT22;40178;53.042;6.406;2022-10-31T03:34:00;9.40;99.90
54264;DHT22;40178;53.042;6.406;2022-10-31T03:36:30;9.40;99.90
54264;DHT22;40178;53.042;6.406;2022-10-31T03:38:57;9.40;99.90
54264;DHT22;40178;53.042;6.406;2022-10-31T03:41:28;9.40;99.90
54264;DHT22;40178;53.042;6.406;2022-10-31T03:43:59;9.40;99.90
54264;DHT22;40178;53.042;6.406;2022-10-31T03:46:27;9.30;99.90
54264;DHT22;40178;53.042;6.406;2022-10-31T03:48:53;9.30;99.90
54264;DHT22;40178;53.042;6.406;2022-10-31T03:54:36;9.20;99.90
54264;DHT22;40178;53.042;6.406;2022-10-31T03:59:42;9.20;99.90
54264;DHT22;40178;53.042;6.406;2022-10-31T04:02:18;9.20;99.90
54264;DHT22;40178;53.042;6.406;2022-10-31T04:04:45;9.20;99.90
54264;DHT22;40178;53.042;6.406;2022-10-31T04:07:12;9.20;99.90
54264;DHT22;40178;53.042;6.406;2022-10-31T04:09:42;9.20;99.90
54264;DHT22;40178;53.042;6.406;2022-10-31T04:12:12;9.20;99.90
54264;DHT22;40178;53.042;6.406;2022-10-31T04:14:41;9.10;99.90
54264;DHT22;40178;53.042;6.406;2022-10-31T04:17:11;9.20;99.90
54264;DHT22;40178;53.042;6.406;2022-10-31T04:19:38;9.20;99.90
54264;DHT22;40178;53.042;6.406;2022-10-31T04:22:03;9.20;99.90
54264;DHT22;40178;53.042;6.406;2022-10-31T04:24:29;9.20;99.90
54264;DHT22;40178;53.042;6.406;2022-10-31T04:26:55;9.20;99.90
54264;DHT22;40178;53.042;6.406;2022-10-31T04:29:20;9.20;99.90
54264;DHT22;40178;53.042;6.406;2022-10-31T04:31:46;9.20;99.90
54264;DHT22;40178;53.042;6.406;2022-10-31T04:34:11;9.10;99.90
54264;DHT22;40178;53.042;6.406;2022-10-31T04:36:37;9.10;99.90
54264;DHT22;40178;53.042;6.406;2022-10-31T04:39:02;9.30;99.90
54264;DHT22;40178;53.042;6.406;2022-10-31T04:41:28;9.10;99.90
54264;DHT22;40178;53.042;6.406;2022-10-31T04:43:54;9.10;99.90
54264;DHT22;40178;53.042;6.406;2022-10-31T04:46:19;9.10;99.90
54264;DHT22;40178;53.042;6.406;2022-10-31T04:48:45;9.10;99.90
54264;DHT22;40178;53.042;6.406;2022-10-31T04:51:10;9.10;99.90
54264;DHT22;40178;53.042;6.406;2022-10-31T04:53:37;9.00;99.90
54264;DHT22;40178;53.042;6.406;2022-10-31T04:56:03;9.10;99.90
54264;DHT22;40178;53.042;6.406;2022-10-31T04:58:29;8.90;99.90
54264;DHT22;40178;53.042;6.406;2022-10-31T05:00:55;8.90;99.90
54264;DHT22;40178;53.042;6.406;2022-10-31T05:03:21;8.80;99.90
54264;DHT22;40178;53.042;6.406;2022-10-31T05:05:47;8.70;99.90
54264;DHT22;40178;53.042;6.406;2022-10-31T05:08:13;8.70;99.90
54264;DHT22;40178;53.042;6.406;2022-10-31T05:10:39;8.60;99.90
54264;DHT22;40178;53.042;6.406;2022-10-31T05:13:05;8.50;99.90
54264;DHT22;40178;53.042;6.406;2022-10-31T05:15:31;8.50;99.90
54264;DHT22;40178;53.042;6.406;2022-10-31T05:17:56;8.50;99.90
54264;DHT22;40178;53.042;6.406;2022-10-31T05:20:24;8.50;99.90
54264;DHT22;40178;53.042;6.406;2022-10-31T05:22:53;8.40;99.90
54264;DHT22;40178;53.042;6.406;2022-10-31T05:25:20;8.40;99.90
54264;DHT22;40178;53.042;6.406;2022-10-31T05:27:48;8.40;99.90
54264;DHT22;40178;53.042;6.406;2022-10-31T05:30:17;8.40;99.90
54264;DHT22;40178;53.042;6.406;2022-10-31T05:32:44;8.40;99.90
54264;DHT22;40178;53.042;6.406;2022-10-31T05:35:13;8.30;99.90
54264;DHT22;40178;53.042;6.406;2022-10-31T05:37:39;8.30;99.90
54264;DHT22;40178;53.042;6.406;2022-10-31T05:40:07;8.30;99.90
54264;DHT22;40178;53.042;6.406;2022-10-31T05:42:34;8.20;99.90
54264;DHT22;40178;53.042;6.406;2022-10-31T05:44:59;8.20;99.90
54264;DHT22;40178;53.042;6.406;2022-10-31T05:47:25;8.20;99.90
54264;DHT22;40178;53.042;6.406;2022-10-31T05:49:51;8.20;99.90
54264;DHT22;40178;53.042;6.406;2022-10-31T05:52:17;8.10;99.90
54264;DHT22;40178;53.042;6.406;2022-10-31T05:54:42;8.10;99.90
54264;DHT22;40178;53.042;6.406;2022-10-31T05:57:08;8.00;99.90
54264;DHT22;40178;53.042;6.406;2022-10-31T05:59:33;8.00;99.90
54264;DHT22;40178;53.042;6.406;2022-10-31T06:01:59;8.00;99.90
54264;DHT22;40178;53.042;6.406;2022-10-31T06:04:25;8.00;99.90
54264;DHT22;40178;53.042;6.406;2022-10-31T06:06:50;7.90;99.90
54264;DHT22;40178;53.042;6.406;2022-10-31T06:09:16;8.00;99.90
54264;DHT22;40178;53.042;6.406;2022-10-31T06:11:41;8.00;99.90
54264;DHT22;40178;53.042;6.406;2022-10-31T06:14:07;8.00;99.90
54264;DHT22;40178;53.042;6.406;2022-10-31T06:16:35;7.90;99.90
54264;DHT22;40178;53.042;6.406;2022-10-31T06:19:01;7.90;99.90
54264;DHT22;40178;53.042;6.406;2022-10-31T06:21:27;7.70;99.90
54264;DHT22;40178;53.042;6.406;2022-10-31T06:23:52;7.80;99.90
54264;DHT22;40178;53.042;6.406;2022-10-31T06:26:18;7.90;99.90
54264;DHT22;40178;53.042;6.406;2022-10-31T06:28:43;7.80;99.90
54264;DHT22;40178;53.042;6.406;2022-10-31T06:31:09;7.90;99.90
54264;DHT22;40178;53.042;6.406;2022-10-31T06:33:34;7.90;99.90
54264;DHT22;40178;53.042;6.406;2022-10-31T06:36:00;8.00;99.90
54264;DHT22;40178;53.042;6.406;2022-10-31T06:38:27;8.00;99.90
54264;DHT22;40178;53.042;6.406;2022-10-31T06:40:53;8.00;99.90
54264;DHT22;40178;53.042;6.406;2022-10-31T06:43:20;8.10;99.90
54264;DHT22;40178;53.042;6.406;2022-10-31T06:45:46;8.10;99.90
54264;DHT22;40178;53.042;6.406;2022-10-31T06:48:11;8.10;99.90
54264;DHT22;40178;53.042;6.406;2022-10-31T06:50:37;8.00;99.90
54264;DHT22;40178;53.042;6.406;2022-10-31T06:53:02;8.10;99.90
54264;DHT22;40178;53.042;6.406;2022-10-31T06:55:28;7.90;99.90
54264;DHT22;40178;53.042;6.406;2022-10-31T06:57:58;8.20;99.90
54264;DHT22;40178;53.042;6.406;2022-10-31T07:00:25;8.20;99.90
54264;DHT22;40178;53.042;6.406;2022-10-31T07:02:55;8.40;99.90
54264;DHT22;40178;53.042;6.406;2022-10-31T07:05:21;8.50;99.90
54264;DHT22;40178;53.042;6.406;2022-10-31T07:07:47;8.70;99.90
54264;DHT22;40178;53.042;6.406;2022-10-31T07:10:12;8.70;99.90
54264;DHT22;40178;53.042;6.406;2022-10-31T07:12:38;8.70;99.90
54264;DHT22;40178;53.042;6.406;2022-10-31T07:15:04;8.80;99.90
54264;DHT22;40178;53.042;6.406;2022-10-31T07:17:29;8.70;99.90
54264;DHT22;40178;53.042;6.406;2022-10-31T07:19:56;8.80;99.90
54264;DHT22;40178;53.042;6.406;2022-10-31T07:22:21;8.80;99.90
54264;DHT22;40178;53.042;6.406;2022-10-31T07:24:47;8.80;99.90
54264;DHT22;40178;53.042;6.406;2022-10-31T07:27:12;8.80;99.90
54264;DHT22;40178;53.042;6.406;2022-10-31T07:29:38;8.80;99.90
54264;DHT22;40178;53.042;6.406;2022-10-31T07:32:03;8.90;99.90
54264;DHT22;40178;53.042;6.406;2022-10-31T07:34:29;9.00;99.90
54264;DHT22;40178;53.042;6.406;2022-10-31T07:36:55;9.10;99.90
54264;DHT22;40178;53.042;6.406;2022-10-31T07:39:20;9.10;99.90
54264;DHT22;40178;53.042;6.406;2022-10-31T07:41:46;9.40;99.90
54264;DHT22;40178;53.042;6.406;2022-10-31T07:44:11;9.50;99.90
54264;DHT22;40178;53.042;6.406;2022-10-31T07:46:37;9.50;99.90
54264;DHT22;40178;53.042;6.406;2022-10-31T07:49:02;9.60;99.90
54264;DHT22;40178;53.042;6.406;2022-10-31T07:51:28;9.80;99.90
54264;DHT22;40178;53.042;6.406;2022-10-31T07:53:54;9.80;99.90
54264;DHT22;40178;53.042;6.406;2022-10-31T07:56:20;10.00;99.90
54264;DHT22;40178;53.042;6.406;2022-10-31T07:58:45;10.10;99.90
54264;DHT22;40178;53.042;6.406;2022-10-31T08:01:11;10.20;99.90
54264;DHT22;40178;53.042;6.406;2022-10-31T08:03:36;10.20;99.90
54264;DHT22;40178;53.042;6.406;2022-10-31T08:06:02;10.30;99.90
54264;DHT22;40178;53.042;6.406;2022-10-31T08:08:27;10.30;99.90
54264;DHT22;40178;53.042;6.406;2022-10-31T08:10:54;10.20;99.90
54264;DHT22;40178;53.042;6.406;2022-10-31T08:13:20;10.50;99.90
54264;DHT22;40178;53.042;6.406;2022-10-31T08:15:46;10.50;99.90
54264;DHT22;40178;53.042;6.406;2022-10-31T08:18:15;10.50;99.90
54264;DHT22;40178;53.042;6.406;2022-10-31T08:20:42;10.50;99.90
54264;DHT22;40178;53.042;6.406;2022-10-31T08:23:09;10.70;99.90
54264;DHT22;40178;53.042;6.406;2022-10-31T08:28:55;10.80;99.90
54264;DHT22;40178;53.042;6.406;2022-10-31T08:31:23;11.20;99.90
54264;DHT22;40178;53.042;6.406;2022-10-31T08:34:00;11.10;99.90
54264;DHT22;40178;53.042;6.406;2022-10-31T08:36:57;11.10;99.90
54264;DHT22;40178;53.042;6.406;2022-10-31T08:39:51;11.00;99.90
54264;DHT22;40178;53.042;6.406;2022-10-31T08:42:46;10.90;99.90
54264;DHT22;40178;53.042;6.406;2022-10-31T08:49:02;10.90;99.90
54264;DHT22;40178;53.042;6.406;2022-10-31T08:52:29;11.50;99.90
54264;DHT22;40178;53.042;6.406;2022-10-31T08:54:58;11.40;99.90
54264;DHT22;40178;53.042;6.406;2022-10-31T08:57:23;11.20;99.90
54264;DHT22;40178;53.042;6.406;2022-10-31T08:59:49;11.20;99.90
54264;DHT22;40178;53.042;6.406;2022-10-31T09:02:14;11.20;99.90
54264;DHT22;40178;53.042;6.406;2022-10-31T09:04:40;11.20;99.90
54264;DHT22;40178;53.042;6.406;2022-10-31T09:07:06;11.30;99.90
54264;DHT22;40178;53.042;6.406;2022-10-31T09:09:31;11.40;99.90
54264;DHT22;40178;53.042;6.406;2022-10-31T09:11:57;11.40;99.90
54264;DHT22;40178;53.042;6.406;2022-10-31T09:14:22;11.50;99.90
54264;DHT22;40178;53.042;6.406;2022-10-31T09:16:48;11.60;99.90
54264;DHT22;40178;53.042;6.406;2022-10-31T09:19:13;11.50;99.90
54264;DHT22;40178;53.042;6.406;2022-10-31T09:21:38;11.70;99.90
54264;DHT22;40178;53.042;6.406;2022-10-31T09:24:04;11.80;99.90
54264;DHT22;40178;53.042;6.406;2022-10-31T09:26:30;11.80;99.90
54264;DHT22;40178;53.042;6.406;2022-10-31T09:28:56;11.90;99.90
54264;DHT22;40178;53.042;6.406;2022-10-31T09:31:23;12.00;99.90
54264;DHT22;40178;53.042;6.406;2022-10-31T09:33:49;12.00;99.90
54264;DHT22;40178;53.042;6.406;2022-10-31T09:36:14;12.00;99.90
54264;DHT22;40178;53.042;6.406;2022-10-31T09:38:40;12.00;99.90
54264;DHT22;40178;53.042;6.406;2022-10-31T09:41:33;12.00;99.90
54264;DHT22;40178;53.042;6.406;2022-10-31T09:44:07;12.10;99.90
54264;DHT22;40178;53.042;6.406;2022-10-31T09:49:34;12.10;99.90
54264;DHT22;40178;53.042;6.406;2022-10-31T09:55:16;12.10;99.90
54264;DHT22;40178;53.042;6.406;2022-10-31T09:57:43;12.00;99.90
54264;DHT22;40178;53.042;6.406;2022-10-31T10:00:19;12.00;99.90
54264;DHT22;40178;53.042;6.406;2022-10-31T10:02:53;12.20;99.90
54264;DHT22;40178;53.042;6.406;2022-10-31T10:05:48;12.20;99.90
54264;DHT22;40178;53.042;6.406;2022-10-31T10:08:25;12.30;99.90
54264;DHT22;40178;53.042;6.406;2022-10-31T10:19:45;12.30;99.90
54264;DHT22;40178;53.042;6.406;2022-10-31T10:25:04;12.40;99.90
54264;DHT22;40178;53.042;6.406;2022-10-31T10:30:48;12.60;99.90
54264;DHT22;40178;53.042;6.406;2022-10-31T10:33:19;12.60;99.90
54264;DHT22;40178;53.042;6.406;2022-10-31T10:35:55;12.70;99.90
54264;DHT22;40178;53.042;6.406;2022-10-31T10:38:39;12.60;99.90
54264;DHT22;40178;53.042;6.406;2022-10-31T10:41:14;12.60;99.90
54264;DHT22;40178;53.042;6.406;2022-10-31T10:43:40;12.60;99.90
54264;DHT22;40178;53.042;6.406;2022-10-31T10:46:30;12.50;99.90
54264;DHT22;40178;53.042;6.406;2022-10-31T10:49:38;12.50;99.90
54264;DHT22;40178;53.042;6.406;2022-10-31T10:55:08;12.70;99.90
54264;DHT22;40178;53.042;6.406;2022-10-31T11:00:34;12.90;99.90
54264;DHT22;40178;53.042;6.406;2022-10-31T11:03:01;13.00;99.90
54264;DHT22;40178;53.042;6.406;2022-10-31T11:05:36;13.00;99.90
54264;DHT22;40178;53.042;6.406;2022-10-31T11:08:02;13.10;99.90
54264;DHT22;40178;53.042;6.406;2022-10-31T11:10:28;13.20;99.90
54264;DHT22;40178;53.042;6.406;2022-10-31T11:15:31;13.30;99.90
54264;DHT22;40178;53.042;6.406;2022-10-31T11:17:59;13.30;99.90
54264;DHT22;40178;53.042;6.406;2022-10-31T11:20:27;13.40;99.90
54264;DHT22;40178;53.042;6.406;2022-10-31T11:23:22;13.30;99.90
54264;DHT22;40178;53.042;6.406;2022-10-31T11:26:00;13.40;99.90
54264;DHT22;40178;53.042;6.406;2022-10-31T11:28:27;13.40;99.90
54264;DHT22;40178;53.042;6.406;2022-10-31T11:31:06;13.40;99.90
54264;DHT22;40178;53.042;6.406;2022-10-31T11:33:37;13.40;99.90
54264;DHT22;40178;53.042;6.406;2022-10-31T11:36:24;13.50;99.90
54264;DHT22;40178;53.042;6.406;2022-10-31T11:38:51;13.50;99.90
54264;DHT22;40178;53.042;6.406;2022-10-31T11:41:20;13.60;99.90
54264;DHT22;40178;53.042;6.406;2022-10-31T11:44:16;13.60;99.90
54264;DHT22;40178;53.042;6.406;2022-10-31T11:46:52;13.70;99.90
54264;DHT22;40178;53.042;6.406;2022-10-31T11:49:35;13.80;99.90
54264;DHT22;40178;53.042;6.406;2022-10-31T11:52:05;13.80;99.90
54264;DHT22;40178;53.042;6.406;2022-10-31T11:54:42;13.90;99.90
54264;DHT22;40178;53.042;6.406;2022-10-31T11:57:27;13.90;99.90
54264;DHT22;40178;53.042;6.406;2022-10-31T11:59:56;13.90;99.90
54264;DHT22;40178;53.042;6.406;2022-10-31T12:02:22;14.00;99.90
54264;DHT22;40178;53.042;6.406;2022-10-31T12:04:57;14.00;99.90
54264;DHT22;40178;53.042;6.406;2022-10-31T12:07:23;14.10;99.90
54264;DHT22;40178;53.042;6.406;2022-10-31T12:09:49;14.20;99.90
54264;DHT22;40178;53.042;6.406;2022-10-31T12:15:52;14.30;99.90
54264;DHT22;40178;53.042;6.406;2022-10-31T12:20:54;14.40;99.90
54264;DHT22;40178;53.042;6.406;2022-10-31T12:26:08;14.50;99.90
54264;DHT22;40178;53.042;6.406;2022-10-31T12:28:48;14.50;99.90
54264;DHT22;40178;53.042;6.406;2022-10-31T12:44:54;14.80;99.90
54264;DHT22;40178;53.042;6.406;2022-10-31T12:47:35;14.80;99.90
54264;DHT22;40178;53.042;6.406;2022-10-31T12:53:15;14.90;99.90
54264;DHT22;40178;53.042;6.406;2022-10-31T12:55:55;15.00;99.90
54264;DHT22;40178;53.042;6.406;2022-10-31T12:58:32;15.10;99.90
54264;DHT22;40178;53.042;6.406;2022-10-31T13:04:47;15.10;99.90
54264;DHT22;40178;53.042;6.406;2022-10-31T13:07:20;15.10;99.90
54264;DHT22;40178;53.042;6.406;2022-10-31T13:09:59;15.00;99.90
54264;DHT22;40178;53.042;6.406;2022-10-31T13:12:29;15.10;99.90
54264;DHT22;40178;53.042;6.406;2022-10-31T13:14:59;15.10;99.90
54264;DHT22;40178;53.042;6.406;2022-10-31T13:17:38;15.10;99.90
54264;DHT22;40178;53.042;6.406;2022-10-31T13:22:52;15.10;99.90
54264;DHT22;40178;53.042;6.406;2022-10-31T13:25:31;15.10;99.90
54264;DHT22;40178;53.042;6.406;2022-10-31T13:28:02;15.20;99.90
54264;DHT22;40178;53.042;6.406;2022-10-31T13:30:38;15.20;99.90
54264;DHT22;40178;53.042;6.406;2022-10-31T13:33:15;15.20;99.90
54264;DHT22;40178;53.042;6.406;2022-10-31T13:35:52;15.20;99.90
54264;DHT22;40178;53.042;6.406;2022-10-31T13:38:28;15.20;99.90
54264;DHT22;40178;53.042;6.406;2022-10-31T13:41:06;15.30;99.90
54264;DHT22;40178;53.042;6.406;2022-10-31T13:46:39;15.50;99.90
54264;DHT22;40178;53.042;6.406;2022-10-31T13:49:45;15.10;99.90
54264;DHT22;40178;53.042;6.406;2022-10-31T13:53:11;15.10;99.90
54264;DHT22;40178;53.042;6.406;2022-10-31T13:55:47;15.20;99.90
54264;DHT22;40178;53.042;6.406;2022-10-31T13:58:25;15.20;99.90
54264;DHT22;40178;53.042;6.406;2022-10-31T14:03:37;15.20;99.90
54264;DHT22;40178;53.042;6.406;2022-10-31T14:06:04;15.20;99.90
54264;DHT22;40178;53.042;6.406;2022-10-31T14:08:35;15.20;99.90
54264;DHT22;40178;53.042;6.406;2022-10-31T14:11:02;15.20;99.90
54264;DHT22;40178;53.042;6.406;2022-10-31T14:13:46;15.50;99.90
54264;DHT22;40178;53.042;6.406;2022-10-31T14:16:25;15.20;99.90
54264;DHT22;40178;53.042;6.406;2022-10-31T14:18:59;15.20;99.90
54264;DHT22;40178;53.042;6.406;2022-10-31T14:21:28;15.20;99.90
54264;DHT22;40178;53.042;6.406;2022-10-31T14:23:55;15.10;99.90
54264;DHT22;40178;53.042;6.406;2022-10-31T14:29:21;15.20;99.90
54264;DHT22;40178;53.042;6.406;2022-10-31T14:31:52;15.10;99.90
54264;DHT22;40178;53.042;6.406;2022-10-31T14:34:23;15.20;99.90
54264;DHT22;40178;53.042;6.406;2022-10-31T14:42:44;15.10;99.90
54264;DHT22;40178;53.042;6.406;2022-10-31T14:45:44;15.10;99.90
54264;DHT22;40178;53.042;6.406;2022-10-31T14:50:58;15.00;99.90
54264;DHT22;40178;53.042;6.406;2022-10-31T14:53:39;15.00;99.90
54264;DHT22;40178;53.042;6.406;2022-10-31T14:56:09;15.00;99.90
54264;DHT22;40178;53.042;6.406;2022-10-31T14:58:41;15.00;99.90
54264;DHT22;40178;53.042;6.406;2022-10-31T15:01:32;14.90;99.90
54264;DHT22;40178;53.042;6.406;2022-10-31T15:04:07;14.90;99.90
54264;DHT22;40178;53.042;6.406;2022-10-31T15:06:41;14.80;99.90
54264;DHT22;40178;53.042;6.406;2022-10-31T15:09:43;14.80;99.90
54264;DHT22;40178;53.042;6.406;2022-10-31T15:12:30;14.70;99.90
54264;DHT22;40178;53.042;6.406;2022-10-31T15:14:56;14.70;99.90
54264;DHT22;40178;53.042;6.406;2022-10-31T15:17:24;14.60;99.90
54264;DHT22;40178;53.042;6.406;2022-10-31T15:19:51;14.80;99.90
54264;DHT22;40178;53.042;6.406;2022-10-31T15:22:19;14.50;99.90
54264;DHT22;40178;53.042;6.406;2022-10-31T15:24:45;14.50;99.90
54264;DHT22;40178;53.042;6.406;2022-10-31T15:27:15;14.50;99.90
54264;DHT22;40178;53.042;6.406;2022-10-31T15:29:53;14.50;99.90
54264;DHT22;40178;53.042;6.406;2022-10-31T15:34:49;14.40;99.90
54264;DHT22;40178;53.042;6.406;2022-10-31T15:37:20;14.30;99.90
54264;DHT22;40178;53.042;6.406;2022-10-31T15:39:49;14.30;99.90
54264;DHT22;40178;53.042;6.406;2022-10-31T15:42:33;14.30;99.90
54264;DHT22;40178;53.042;6.406;2022-10-31T15:47:36;14.30;99.90
54264;DHT22;40178;53.042;6.406;2022-10-31T15:50:05;14.30;99.90
54264;DHT22;40178;53.042;6.406;2022-10-31T15:52:41;14.30;99.90
54264;DHT22;40178;53.042;6.406;2022-10-31T15:57:44;14.10;99.90
54264;DHT22;40178;53.042;6.406;2022-10-31T16:00:33;14.10;99.90
54264;DHT22;40178;53.042;6.406;2022-10-31T16:05:45;14.10;99.90
54264;DHT22;40178;53.042;6.406;2022-10-31T16:10:51;14.00;99.90
54264;DHT22;40178;53.042;6.406;2022-10-31T16:13:17;14.00;99.90
54264;DHT22;40178;53.042;6.406;2022-10-31T16:15:49;14.00;99.90
54264;DHT22;40178;53.042;6.406;2022-10-31T16:18:16;14.00;99.90
54264;DHT22;40178;53.042;6.406;2022-10-31T16:20:49;14.00;99.90
54264;DHT22;40178;53.042;6.406;2022-10-31T16:23:17;13.90;99.90
54264;DHT22;40178;53.042;6.406;2022-10-31T16:25:43;13.90;99.90
54264;DHT22;40178;53.042;6.406;2022-10-31T16:28:18;13.90;99.90
54264;DHT22;40178;53.042;6.406;2022-10-31T16:30:49;13.90;99.90
54264;DHT22;40178;53.042;6.406;2022-10-31T16:35:45;13.80;99.90
54264;DHT22;40178;53.042;6.406;2022-10-31T16:38:11;13.80;99.90
54264;DHT22;40178;53.042;6.406;2022-10-31T16:40:38;13.80;99.90
54264;DHT22;40178;53.042;6.406;2022-10-31T16:43:04;13.80;99.90
54264;DHT22;40178;53.042;6.406;2022-10-31T16:45:31;13.70;99.90
54264;DHT22;40178;53.042;6.406;2022-10-31T16:48:08;13.70;99.90
54264;DHT22;40178;53.042;6.406;2022-10-31T16:50:34;13.70;99.90
54264;DHT22;40178;53.042;6.406;2022-10-31T16:53:00;13.70;99.90
54264;DHT22;40178;53.042;6.406;2022-10-31T16:55:26;13.70;99.90
54264;DHT22;40178;53.042;6.406;2022-10-31T16:57:53;13.60;99.90
54264;DHT22;40178;53.042;6.406;2022-10-31T17:00:24;13.60;99.90
54264;DHT22;40178;53.042;6.406;2022-10-31T17:02:52;13.60;99.90
54264;DHT22;40178;53.042;6.406;2022-10-31T17:05:19;13.60;99.90
54264;DHT22;40178;53.042;6.406;2022-10-31T17:07:46;13.60;99.90
54264;DHT22;40178;53.042;6.406;2022-10-31T17:10:13;13.50;99.90
54264;DHT22;40178;53.042;6.406;2022-10-31T17:12:41;13.50;99.90
54264;DHT22;40178;53.042;6.406;2022-10-31T17:15:21;13.50;99.90
54264;DHT22;40178;53.042;6.406;2022-10-31T17:17:47;13.50;99.90
54264;DHT22;40178;53.042;6.406;2022-10-31T17:20:19;13.50;99.90
54264;DHT22;40178;53.042;6.406;2022-10-31T17:22:45;13.50;99.90
54264;DHT22;40178;53.042;6.406;2022-10-31T17:25:14;13.50;99.90
54264;DHT22;40178;53.042;6.406;2022-10-31T17:27:40;13.50;99.90
54264;DHT22;40178;53.042;6.406;2022-10-31T17:30:07;13.50;99.90
54264;DHT22;40178;53.042;6.406;2022-10-31T17:32:32;13.50;99.90
54264;DHT22;40178;53.042;6.406;2022-10-31T17:34:58;13.40;99.90
54264;DHT22;40178;53.042;6.406;2022-10-31T17:37:23;13.50;99.90
54264;DHT22;40178;53.042;6.406;2022-10-31T17:39:49;13.50;99.90
54264;DHT22;40178;53.042;6.406;2022-10-31T17:42:14;13.50;99.90
54264;DHT22;40178;53.042;6.406;2022-10-31T17:44:40;13.50;99.90
54264;DHT22;40178;53.042;6.406;2022-10-31T17:47:06;13.50;99.90
54264;DHT22;40178;53.042;6.406;2022-10-31T17:49:31;13.50;99.90
54264;DHT22;40178;53.042;6.406;2022-10-31T17:51:57;13.50;99.90
54264;DHT22;40178;53.042;6.406;2022-10-31T17:54:23;13.50;99.90
54264;DHT22;40178;53.042;6.406;2022-10-31T17:56:48;13.50;99.90
54264;DHT22;40178;53.042;6.406;2022-10-31T17:59:14;13.60;99.90
54264;DHT22;40178;53.042;6.406;2022-10-31T18:01:39;13.50;99.90
54264;DHT22;40178;53.042;6.406;2022-10-31T18:04:05;13.50;99.90
54264;DHT22;40178;53.042;6.406;2022-10-31T18:06:30;13.60;99.90